KMRF/MRF METAR and TAF weather

Enter ICAO airport designator
Station Type Date Time Source
KMRF METAR 2022/06/26 07:56 UTC NOAA

KMRF 260756Z AUTO 36003KT 10SM CLR 19/06 A3022 RMK AO2 SLP156 T01940056


Station Type Date Time Source
KMRF Decoded METAR 2022/06/26 07:56 UTC NOAA

Marfa, TX, United States (KMRF) 30-22N 104-01W 1481M
Jun 26, 2022 - 03:56 AM EDT / 2022.06.26 0756 UTC
Wind: from the N (360 degrees) at 3 MPH (3 KT):0
Visibility: 10 mile(s):0
Sky conditions: clear
Temperature: 66.9 F (19.4 C)
Dew Point: 42.1 F (5.6 C)
Relative Humidity: 40%
Pressure (altimeter): 30.22 in. Hg (1023 hPa)
ob: KMRF 260756Z AUTO 36003KT 10SM CLR 19/06 A3022 RMK AO2 SLP156 T01940056
cycle: 8

Station Type Date Time Source
KMRF TAF UTC NOAA

Error!

Example: see airport list